Terminal Aerodrome Forecast
Issued by NWS

Current Version | Previous Version | Text Only | Print | Product List | Glossary On
Versions: 1 2 3 4 5 6 7 8 9 10 11 12 13 14 15 16 17
257
FTUS43 KICT 221120
TAFHUT
TAF
KHUT 221120Z 2212/2312 35012KT P6SM OVC035
     FM222200 01011KT P6SM BKN050
     FM230600 35007KT P6SM SKC=

USA.gov is the U.S. government's official web portal to all federal, state and local government web resources and services.